N100CX KAPC-KTRK
Flight info
| Callsign | N100CX |
|---|---|
| Flight time | 0h 52m |
| Altitude | 17500 |
| Route | NAPAA4 SGD SAC TRUCK |
| Aircraft | C414/L-SBDFGRY/S |
Departure
| Time | 2026-05-07 04:00 |
|---|---|
| Airport | Napa County Airport (KAPC) |
Arrival
| Time | 2026-05-07 04:52 |
|---|---|
| Airport | Truckee Tahoe Airport (KTRK) |
| Time | Latitude | Longitude | Altitude | Speed | Heading |
|---|---|---|---|---|---|
| 2026-05-07 03:39 | 38.21233 | -122.27075 | 23 ft | 0 kts | 217° |
| 2026-05-07 03:55 | 38.21232 | -122.27076 | 23 ft | 1 kts | 217° |
| 2026-05-07 03:55 | 38.21223 | -122.27095 | 25 ft | 3 kts | 298° |
| 2026-05-07 03:55 | 38.21261 | -122.27118 | 23 ft | 10 kts | 334° |
| 2026-05-07 03:56 | 38.21283 | -122.27188 | 25 ft | 12 kts | 242° |
| 2026-05-07 03:56 | 38.21234 | -122.27253 | 24 ft | 10 kts | 158° |
| 2026-05-07 03:56 | 38.21159 | -122.27204 | 23 ft | 4 kts | 156° |
| 2026-05-07 03:56 | 38.21158 | -122.27203 | 23 ft | 0 kts | 156° |
| 2026-05-07 03:58 | 38.21138 | -122.27192 | 23 ft | 11 kts | 156° |
| 2026-05-07 03:58 | 38.21077 | -122.27203 | 22 ft | 0 kts | 253° |
| 2026-05-07 03:58 | 38.21066 | -122.27273 | 22 ft | 25 kts | 257° |
| 2026-05-07 03:59 | 38.20984 | -122.27699 | 18 ft | 71 kts | 258° |
| 2026-05-07 03:59 | 38.20850 | -122.28419 | 53 ft | 95 kts | 255° |
| 2026-05-07 03:59 | 38.20702 | -122.29219 | 339 ft | 91 kts | 258° |
| 2026-05-07 03:59 | 38.20551 | -122.30020 | 495 ft | 92 kts | 258° |
| 2026-05-07 04:00 | 38.20450 | -122.30847 | 585 ft | 100 kts | 274° |
| 2026-05-07 04:00 | 38.20743 | -122.31651 | 835 ft | 102 kts | 309° |
| 2026-05-07 04:00 | 38.21433 | -122.31968 | 960 ft | 120 kts | 1° |
| 2026-05-07 04:00 | 38.22172 | -122.31467 | 1163 ft | 128 kts | 45° |
| 2026-05-07 04:01 | 38.22767 | -122.30548 | 1345 ft | 139 kts | 47° |
| 2026-05-07 04:01 | 38.23432 | -122.29682 | 1677 ft | 137 kts | 39° |
| 2026-05-07 04:01 | 38.24118 | -122.28813 | 1991 ft | 139 kts | 43° |
| 2026-05-07 04:01 | 38.24760 | -122.27895 | 2307 ft | 139 kts | 45° |
| 2026-05-07 04:02 | 38.25375 | -122.26924 | 2618 ft | 139 kts | 50° |
| 2026-05-07 04:02 | 38.25956 | -122.25901 | 2798 ft | 149 kts | 52° |
| 2026-05-07 04:02 | 38.26550 | -122.24795 | 3020 ft | 153 kts | 49° |
| 2026-05-07 04:02 | 38.27210 | -122.23724 | 3276 ft | 154 kts | 49° |
| 2026-05-07 04:03 | 38.27882 | -122.22661 | 3546 ft | 154 kts | 48° |
| 2026-05-07 04:03 | 38.28543 | -122.21589 | 3803 ft | 153 kts | 49° |
| 2026-05-07 04:03 | 38.29050 | -122.20404 | 4079 ft | 154 kts | 70° |
| 2026-05-07 04:03 | 38.29374 | -122.19130 | 4360 ft | 152 kts | 66° |
| 2026-05-07 04:04 | 38.29698 | -122.17848 | 4644 ft | 152 kts | 68° |
| 2026-05-07 04:04 | 38.30003 | -122.16561 | 4900 ft | 152 kts | 68° |
| 2026-05-07 04:04 | 38.30267 | -122.15256 | 5140 ft | 152 kts | 75° |
| 2026-05-07 04:04 | 38.30501 | -122.13941 | 5392 ft | 152 kts | 72° |
| 2026-05-07 04:05 | 38.30735 | -122.12625 | 5625 ft | 152 kts | 73° |
| 2026-05-07 04:05 | 38.30962 | -122.11310 | 5891 ft | 152 kts | 76° |
| 2026-05-07 04:05 | 38.31200 | -122.10005 | 6133 ft | 151 kts | 75° |
| 2026-05-07 04:05 | 38.31437 | -122.08701 | 6387 ft | 151 kts | 73° |
| 2026-05-07 04:06 | 38.31660 | -122.07391 | 6643 ft | 151 kts | 74° |
| 2026-05-07 04:06 | 38.31870 | -122.06077 | 6870 ft | 152 kts | 77° |
| 2026-05-07 04:06 | 38.32077 | -122.04780 | 7110 ft | 152 kts | 75° |
| 2026-05-07 04:06 | 38.32304 | -122.03463 | 7329 ft | 152 kts | 72° |
| 2026-05-07 04:07 | 38.32530 | -122.02149 | 7588 ft | 152 kts | 73° |
| 2026-05-07 04:07 | 38.32748 | -122.00838 | 7843 ft | 151 kts | 75° |
| 2026-05-07 04:07 | 38.32975 | -121.99532 | 8097 ft | 151 kts | 75° |
| 2026-05-07 04:07 | 38.33214 | -121.98229 | 8350 ft | 151 kts | 75° |
| 2026-05-07 04:08 | 38.33458 | -121.96931 | 8602 ft | 151 kts | 74° |
| 2026-05-07 04:08 | 38.33705 | -121.95638 | 8868 ft | 150 kts | 75° |
| 2026-05-07 04:08 | 38.33956 | -121.94346 | 9118 ft | 150 kts | 74° |
| 2026-05-07 04:08 | 38.34218 | -121.93059 | 9375 ft | 150 kts | 74° |
| 2026-05-07 04:09 | 38.34488 | -121.91769 | 9651 ft | 150 kts | 74° |
| 2026-05-07 04:09 | 38.34758 | -121.90493 | 9928 ft | 149 kts | 74° |
| 2026-05-07 04:09 | 38.35034 | -121.89221 | 10170 ft | 149 kts | 74° |
| 2026-05-07 04:09 | 38.35316 | -121.87944 | 10395 ft | 150 kts | 74° |
| 2026-05-07 04:10 | 38.35595 | -121.86676 | 10626 ft | 150 kts | 74° |
| 2026-05-07 04:10 | 38.35878 | -121.85395 | 10872 ft | 150 kts | 74° |
| 2026-05-07 04:10 | 38.36163 | -121.84105 | 11110 ft | 151 kts | 74° |
| 2026-05-07 04:10 | 38.36452 | -121.82815 | 11344 ft | 152 kts | 74° |
| 2026-05-07 04:11 | 38.36745 | -121.81516 | 11581 ft | 153 kts | 74° |
| 2026-05-07 04:11 | 38.37027 | -121.80211 | 11828 ft | 153 kts | 75° |
| 2026-05-07 04:11 | 38.37309 | -121.78896 | 12068 ft | 154 kts | 75° |
| 2026-05-07 04:11 | 38.37598 | -121.77578 | 12306 ft | 155 kts | 75° |
| 2026-05-07 04:12 | 38.37890 | -121.76248 | 12555 ft | 156 kts | 75° |
| 2026-05-07 04:12 | 38.38192 | -121.74926 | 12803 ft | 156 kts | 71° |
| 2026-05-07 04:12 | 38.38586 | -121.73638 | 13051 ft | 156 kts | 68° |
| 2026-05-07 04:12 | 38.38995 | -121.72349 | 13296 ft | 157 kts | 69° |
| 2026-05-07 04:13 | 38.39400 | -121.71065 | 13542 ft | 158 kts | 69° |
| 2026-05-07 04:13 | 38.39808 | -121.69767 | 13797 ft | 158 kts | 69° |
| 2026-05-07 04:13 | 38.40218 | -121.68460 | 14034 ft | 159 kts | 68° |
| 2026-05-07 04:13 | 38.40629 | -121.67152 | 14259 ft | 159 kts | 68° |
| 2026-05-07 04:14 | 38.41038 | -121.65843 | 14494 ft | 159 kts | 68° |
| 2026-05-07 04:14 | 38.41449 | -121.64533 | 14726 ft | 159 kts | 68° |
| 2026-05-07 04:14 | 38.41860 | -121.63221 | 14952 ft | 159 kts | 68° |
| 2026-05-07 04:14 | 38.42270 | -121.61908 | 15190 ft | 159 kts | 68° |
| 2026-05-07 04:15 | 38.42680 | -121.60602 | 15427 ft | 159 kts | 67° |
| 2026-05-07 04:15 | 38.43088 | -121.59296 | 15655 ft | 159 kts | 68° |
| 2026-05-07 04:15 | 38.43496 | -121.57988 | 15887 ft | 158 kts | 67° |
| 2026-05-07 04:15 | 38.43903 | -121.56689 | 16125 ft | 157 kts | 66° |
| 2026-05-07 04:16 | 38.44315 | -121.55394 | 16356 ft | 157 kts | 63° |
| 2026-05-07 04:16 | 38.44977 | -121.54299 | 16568 ft | 156 kts | 45° |
| 2026-05-07 04:16 | 38.45734 | -121.53304 | 16815 ft | 156 kts | 46° |
| 2026-05-07 04:16 | 38.46464 | -121.52308 | 17048 ft | 156 kts | 46° |
| 2026-05-07 04:17 | 38.47206 | -121.51295 | 17274 ft | 157 kts | 46° |
| 2026-05-07 04:17 | 38.47954 | -121.50273 | 17478 ft | 160 kts | 46° |
| 2026-05-07 04:17 | 38.48746 | -121.49187 | 17492 ft | 173 kts | 46° |
| 2026-05-07 04:17 | 38.49593 | -121.48027 | 17492 ft | 184 kts | 46° |
| 2026-05-07 04:18 | 38.50483 | -121.46805 | 17493 ft | 192 kts | 46° |
| 2026-05-07 04:18 | 38.51407 | -121.45536 | 17495 ft | 198 kts | 46° |
| 2026-05-07 04:18 | 38.52360 | -121.44228 | 17493 ft | 203 kts | 46° |
| 2026-05-07 04:18 | 38.53331 | -121.42895 | 17491 ft | 207 kts | 46° |
| 2026-05-07 04:19 | 38.54316 | -121.41542 | 17489 ft | 210 kts | 46° |
| 2026-05-07 04:19 | 38.55316 | -121.40168 | 17491 ft | 212 kts | 46° |
| 2026-05-07 04:19 | 38.56322 | -121.38785 | 17482 ft | 213 kts | 46° |
| 2026-05-07 04:19 | 38.57333 | -121.37395 | 17481 ft | 214 kts | 46° |
| 2026-05-07 04:20 | 38.58347 | -121.35999 | 17479 ft | 215 kts | 46° |
| 2026-05-07 04:20 | 38.59365 | -121.34598 | 17481 ft | 215 kts | 46° |
| 2026-05-07 04:20 | 38.60388 | -121.33190 | 17481 ft | 216 kts | 46° |
| 2026-05-07 04:21 | 38.62435 | -121.30369 | 17481 ft | 216 kts | 46° |
| 2026-05-07 04:21 | 38.63446 | -121.28975 | 17481 ft | 216 kts | 46° |
| 2026-05-07 04:21 | 38.64471 | -121.27562 | 17482 ft | 216 kts | 46° |
| 2026-05-07 04:21 | 38.65493 | -121.26151 | 17479 ft | 217 kts | 46° |
| 2026-05-07 04:22 | 38.66518 | -121.24736 | 17488 ft | 217 kts | 46° |
| 2026-05-07 04:22 | 38.67545 | -121.23318 | 17484 ft | 217 kts | 46° |
| 2026-05-07 04:22 | 38.68571 | -121.21900 | 17485 ft | 217 kts | 46° |
| 2026-05-07 04:22 | 38.69597 | -121.20481 | 17485 ft | 217 kts | 46° |
| 2026-05-07 04:23 | 38.70618 | -121.19068 | 17485 ft | 216 kts | 46° |
| 2026-05-07 04:23 | 38.71641 | -121.17652 | 17486 ft | 216 kts | 46° |
| 2026-05-07 04:23 | 38.72663 | -121.16237 | 17486 ft | 216 kts | 46° |
| 2026-05-07 04:23 | 38.73672 | -121.14840 | 17509 ft | 216 kts | 46° |
| 2026-05-07 04:24 | 38.74708 | -121.13405 | 17512 ft | 216 kts | 46° |
| 2026-05-07 04:24 | 38.75714 | -121.12010 | 17514 ft | 216 kts | 46° |
| 2026-05-07 04:24 | 38.76735 | -121.10594 | 17516 ft | 216 kts | 46° |
| 2026-05-07 04:24 | 38.77754 | -121.09180 | 17518 ft | 216 kts | 46° |
| 2026-05-07 04:25 | 38.78777 | -121.07761 | 17520 ft | 216 kts | 46° |
| 2026-05-07 04:25 | 38.79796 | -121.06344 | 17522 ft | 216 kts | 46° |
| 2026-05-07 04:25 | 38.80487 | -121.05384 | 17525 ft | 216 kts | 46° |
| 2026-05-07 04:25 | 38.81498 | -121.03980 | 17527 ft | 216 kts | 46° |
| 2026-05-07 04:26 | 38.82518 | -121.02561 | 17528 ft | 216 kts | 46° |
| 2026-05-07 04:26 | 38.83541 | -121.01137 | 17529 ft | 217 kts | 46° |
| 2026-05-07 04:26 | 38.84562 | -120.99716 | 17529 ft | 217 kts | 46° |
| 2026-05-07 04:26 | 38.85584 | -120.98293 | 17530 ft | 217 kts | 46° |
| 2026-05-07 04:27 | 38.86608 | -120.96868 | 17530 ft | 216 kts | 46° |
| 2026-05-07 04:27 | 38.87628 | -120.95446 | 17533 ft | 217 kts | 46° |
| 2026-05-07 04:27 | 38.88638 | -120.94037 | 17528 ft | 217 kts | 46° |
| 2026-05-07 04:27 | 38.89666 | -120.92603 | 17543 ft | 218 kts | 46° |
| 2026-05-07 04:28 | 38.90690 | -120.91174 | 17542 ft | 218 kts | 46° |
| 2026-05-07 04:28 | 38.91720 | -120.89737 | 17541 ft | 218 kts | 46° |
| 2026-05-07 04:28 | 38.92748 | -120.88300 | 17541 ft | 218 kts | 46° |
| 2026-05-07 04:28 | 38.93777 | -120.86862 | 17540 ft | 218 kts | 46° |
| 2026-05-07 04:29 | 38.94806 | -120.85423 | 17541 ft | 219 kts | 46° |
| 2026-05-07 04:29 | 38.95824 | -120.83999 | 17537 ft | 219 kts | 46° |
| 2026-05-07 04:29 | 38.96857 | -120.82554 | 17532 ft | 219 kts | 46° |
| 2026-05-07 04:29 | 38.97887 | -120.81111 | 17532 ft | 219 kts | 46° |
| 2026-05-07 04:30 | 38.98919 | -120.79666 | 17529 ft | 219 kts | 46° |
| 2026-05-07 04:30 | 38.99952 | -120.78219 | 17527 ft | 219 kts | 46° |
| 2026-05-07 04:30 | 39.00983 | -120.76773 | 17552 ft | 220 kts | 46° |
| 2026-05-07 04:30 | 39.02012 | -120.75329 | 17562 ft | 219 kts | 46° |
| 2026-05-07 04:31 | 39.03045 | -120.73879 | 17563 ft | 219 kts | 46° |
| 2026-05-07 04:31 | 39.04075 | -120.72433 | 17578 ft | 219 kts | 46° |
| 2026-05-07 04:31 | 39.05102 | -120.70991 | 17584 ft | 219 kts | 46° |
| 2026-05-07 04:31 | 39.06130 | -120.69545 | 17589 ft | 219 kts | 46° |
| 2026-05-07 04:32 | 39.07161 | -120.68097 | 17595 ft | 219 kts | 46° |
| 2026-05-07 04:32 | 39.08185 | -120.66654 | 17596 ft | 218 kts | 46° |
| 2026-05-07 04:32 | 39.09191 | -120.65240 | 17600 ft | 217 kts | 46° |
| 2026-05-07 04:32 | 39.10212 | -120.63800 | 17602 ft | 217 kts | 46° |
| 2026-05-07 04:33 | 39.11234 | -120.62364 | 17610 ft | 218 kts | 46° |
| 2026-05-07 04:33 | 39.12258 | -120.60922 | 17614 ft | 218 kts | 46° |
| 2026-05-07 04:33 | 39.13284 | -120.59474 | 17615 ft | 219 kts | 46° |
| 2026-05-07 04:33 | 39.14308 | -120.58029 | 17616 ft | 219 kts | 46° |
| 2026-05-07 04:34 | 39.15333 | -120.56582 | 17615 ft | 218 kts | 46° |
| 2026-05-07 04:34 | 39.16358 | -120.55136 | 17615 ft | 218 kts | 46° |
| 2026-05-07 04:34 | 39.17381 | -120.53691 | 17613 ft | 218 kts | 46° |
| 2026-05-07 04:34 | 39.18395 | -120.52258 | 17613 ft | 219 kts | 46° |
| 2026-05-07 04:35 | 39.19423 | -120.50804 | 17615 ft | 219 kts | 46° |
| 2026-05-07 04:35 | 39.20449 | -120.49353 | 17613 ft | 219 kts | 46° |
| 2026-05-07 04:35 | 39.21478 | -120.47897 | 17610 ft | 220 kts | 46° |
| 2026-05-07 04:35 | 39.22508 | -120.46438 | 17603 ft | 220 kts | 46° |
| 2026-05-07 04:36 | 39.23539 | -120.44977 | 17601 ft | 220 kts | 46° |
| 2026-05-07 04:36 | 39.24568 | -120.43520 | 17602 ft | 219 kts | 46° |
| 2026-05-07 04:36 | 39.25598 | -120.42061 | 17588 ft | 220 kts | 46° |
| 2026-05-07 04:36 | 39.26625 | -120.40602 | 17603 ft | 219 kts | 46° |
| 2026-05-07 04:37 | 39.27651 | -120.39145 | 17609 ft | 219 kts | 46° |
| 2026-05-07 04:37 | 39.28665 | -120.37707 | 17615 ft | 219 kts | 46° |
| 2026-05-07 04:37 | 39.29691 | -120.36250 | 17623 ft | 219 kts | 46° |
| 2026-05-07 04:37 | 39.30720 | -120.34787 | 17631 ft | 220 kts | 46° |
| 2026-05-07 04:38 | 39.31748 | -120.33325 | 17636 ft | 220 kts | 46° |
| 2026-05-07 04:38 | 39.32777 | -120.31861 | 17644 ft | 219 kts | 46° |
| 2026-05-07 04:38 | 39.33803 | -120.30402 | 17648 ft | 219 kts | 46° |
| 2026-05-07 04:38 | 39.34828 | -120.28942 | 17651 ft | 219 kts | 46° |
| 2026-05-07 04:39 | 39.35853 | -120.27482 | 17655 ft | 219 kts | 46° |
| 2026-05-07 04:39 | 39.36877 | -120.26023 | 17659 ft | 219 kts | 46° |
| 2026-05-07 04:39 | 39.37905 | -120.24556 | 17492 ft | 219 kts | 46° |
| 2026-05-07 04:39 | 39.38917 | -120.23113 | 17491 ft | 220 kts | 46° |
| 2026-05-07 04:40 | 39.39930 | -120.21637 | 17492 ft | 220 kts | 51° |
| 2026-05-07 04:40 | 39.40561 | -120.19842 | 17494 ft | 223 kts | 78° |
| 2026-05-07 04:40 | 39.40486 | -120.17848 | 17492 ft | 226 kts | 105° |
| 2026-05-07 04:40 | 39.39745 | -120.16012 | 17042 ft | 238 kts | 129° |
| 2026-05-07 04:41 | 39.38547 | -120.14504 | 16496 ft | 244 kts | 138° |
| 2026-05-07 04:41 | 39.37250 | -120.13071 | 16157 ft | 246 kts | 139° |
| 2026-05-07 04:41 | 39.36198 | -120.11358 | 15614 ft | 245 kts | 110° |
| 2026-05-07 04:41 | 39.36057 | -120.09205 | 15076 ft | 242 kts | 76° |
| 2026-05-07 04:42 | 39.36832 | -120.07309 | 14564 ft | 240 kts | 49° |
| 2026-05-07 04:42 | 39.38138 | -120.06009 | 13880 ft | 236 kts | 25° |
| 2026-05-07 04:42 | 39.39692 | -120.05523 | 13303 ft | 228 kts | 2° |
| 2026-05-07 04:42 | 39.41233 | -120.05862 | 12756 ft | 224 kts | 339° |
| 2026-05-07 04:43 | 39.42520 | -120.06929 | 12418 ft | 218 kts | 317° |
| 2026-05-07 04:43 | 39.43399 | -120.08485 | 12190 ft | 213 kts | 301° |
| 2026-05-07 04:43 | 39.44172 | -120.10077 | 11970 ft | 210 kts | 304° |
| 2026-05-07 04:43 | 39.44982 | -120.11634 | 11747 ft | 208 kts | 307° |
| 2026-05-07 04:44 | 39.45863 | -120.13110 | 11525 ft | 207 kts | 311° |
| 2026-05-07 04:44 | 39.46770 | -120.14553 | 11291 ft | 206 kts | 311° |
| 2026-05-07 04:44 | 39.47671 | -120.15994 | 11069 ft | 206 kts | 311° |
| 2026-05-07 04:44 | 39.48571 | -120.17434 | 10852 ft | 205 kts | 310° |
| 2026-05-07 04:45 | 39.49470 | -120.18868 | 10630 ft | 204 kts | 311° |
| 2026-05-07 04:45 | 39.50360 | -120.20295 | 10423 ft | 203 kts | 310° |
| 2026-05-07 04:45 | 39.51247 | -120.21718 | 10224 ft | 202 kts | 310° |
| 2026-05-07 04:45 | 39.52031 | -120.23207 | 9998 ft | 201 kts | 291° |
| 2026-05-07 04:46 | 39.52054 | -120.25003 | 9710 ft | 203 kts | 257° |
| 2026-05-07 04:46 | 39.51406 | -120.26557 | 9672 ft | 193 kts | 229° |
| 2026-05-07 04:46 | 39.50321 | -120.27473 | 9674 ft | 183 kts | 199° |
| 2026-05-07 04:46 | 39.49095 | -120.27763 | 9670 ft | 177 kts | 188° |
| 2026-05-07 04:47 | 39.47893 | -120.27984 | 9670 ft | 173 kts | 188° |
| 2026-05-07 04:47 | 39.46710 | -120.28196 | 9670 ft | 170 kts | 187° |
| 2026-05-07 04:47 | 39.45547 | -120.28400 | 9674 ft | 167 kts | 186° |
| 2026-05-07 04:47 | 39.44389 | -120.28531 | 9581 ft | 171 kts | 173° |
| 2026-05-07 04:48 | 39.43276 | -120.27950 | 9289 ft | 179 kts | 140° |
| 2026-05-07 04:48 | 39.42366 | -120.26858 | 8986 ft | 175 kts | 135° |
| 2026-05-07 04:48 | 39.41478 | -120.25818 | 8696 ft | 168 kts | 137° |
| 2026-05-07 04:48 | 39.40596 | -120.24853 | 8420 ft | 164 kts | 139° |
| 2026-05-07 04:49 | 39.39749 | -120.23933 | 8160 ft | 158 kts | 139° |
| 2026-05-07 04:49 | 39.38917 | -120.23032 | 7898 ft | 151 kts | 140° |
| 2026-05-07 04:49 | 39.38157 | -120.22206 | 7670 ft | 138 kts | 140° |
| 2026-05-07 04:49 | 39.37434 | -120.21420 | 7632 ft | 132 kts | 140° |
| 2026-05-07 04:50 | 39.36751 | -120.20681 | 7460 ft | 123 kts | 140° |
| 2026-05-07 04:50 | 39.36110 | -120.19985 | 7278 ft | 117 kts | 140° |
| 2026-05-07 04:50 | 39.35495 | -120.19318 | 7110 ft | 115 kts | 140° |
| 2026-05-07 04:50 | 39.34894 | -120.18669 | 6913 ft | 112 kts | 140° |
| 2026-05-07 04:51 | 39.34294 | -120.18018 | 6685 ft | 110 kts | 140° |
| 2026-05-07 04:51 | 39.33715 | -120.17378 | 6460 ft | 110 kts | 138° |
| 2026-05-07 04:51 | 39.33185 | -120.16678 | 6273 ft | 108 kts | 130° |
| 2026-05-07 04:51 | 39.32748 | -120.15872 | 6036 ft | 110 kts | 119° |
| 2026-05-07 04:52 | 39.32376 | -120.15029 | 5912 ft | 102 kts | 120° |
| 2026-05-07 04:52 | 39.32069 | -120.14353 | 5895 ft | 51 kts | 120° |
| 2026-05-07 04:52 | 39.31949 | -120.14079 | 5899 ft | 30 kts | 119° |
| 2026-05-07 04:52 | 39.31872 | -120.13893 | 5901 ft | 20 kts | 117° |
| 2026-05-07 04:53 | 39.31827 | -120.13812 | 5900 ft | 10 kts | 160° |
| 2026-05-07 04:53 | 39.31772 | -120.13842 | 5897 ft | 8 kts | 248° |
| 2026-05-07 04:53 | 39.31790 | -120.13902 | 5898 ft | 6 kts | 302° |
| 2026-05-07 04:53 | 39.31811 | -120.13946 | 5899 ft | 5 kts | 300° |
| 2026-05-07 04:54 | 39.31839 | -120.14012 | 5898 ft | 12 kts | 298° |
| 2026-05-07 04:54 | 39.31809 | -120.14074 | 5898 ft | 7 kts | 174° |
| 2026-05-07 04:54 | 39.31778 | -120.14060 | 5898 ft | 6 kts | 210° |
| 2026-05-07 04:54 | 39.31776 | -120.14062 | 5898 ft | 0 kts | 206° |